sensor_id;sensor_type;location;lat;lon;timestamp;temperature;humidity
37318;DHT22;23201;52.484;4.764;2024-01-15T00:01:47;17.70;99.90
37318;DHT22;23201;52.484;4.764;2024-01-15T00:04:13;17.70;99.90
37318;DHT22;23201;52.484;4.764;2024-01-15T00:06:39;17.70;99.90
37318;DHT22;23201;52.484;4.764;2024-01-15T00:09:04;17.60;99.90
37318;DHT22;23201;52.484;4.764;2024-01-15T00:11:32;17.70;99.90
37318;DHT22;23201;52.484;4.764;2024-01-15T00:13:57;17.70;99.90
37318;DHT22;23201;52.484;4.764;2024-01-15T00:16:23;17.70;99.90
37318;DHT22;23201;52.484;4.764;2024-01-15T00:18:49;17.70;99.90
37318;DHT22;23201;52.484;4.764;2024-01-15T00:21:15;17.70;99.90
37318;DHT22;23201;52.484;4.764;2024-01-15T00:23:44;17.60;99.90
37318;DHT22;23201;52.484;4.764;2024-01-15T00:26:12;17.60;99.90
37318;DHT22;23201;52.484;4.764;2024-01-15T00:28:38;17.60;99.90
37318;DHT22;23201;52.484;4.764;2024-01-15T00:31:07;17.60;99.90
37318;DHT22;23201;52.484;4.764;2024-01-15T00:33:32;17.60;99.90
37318;DHT22;23201;52.484;4.764;2024-01-15T00:35:58;17.60;99.90
37318;DHT22;23201;52.484;4.764;2024-01-15T00:38:23;17.60;99.90
37318;DHT22;23201;52.484;4.764;2024-01-15T00:40:49;17.50;99.90
37318;DHT22;23201;52.484;4.764;2024-01-15T00:43:15;17.60;99.90
37318;DHT22;23201;52.484;4.764;2024-01-15T00:45:43;17.60;99.90
37318;DHT22;23201;52.484;4.764;2024-01-15T00:48:09;17.60;99.90
37318;DHT22;23201;52.484;4.764;2024-01-15T00:50:34;17.60;99.90
37318;DHT22;23201;52.484;4.764;2024-01-15T00:53:00;17.60;99.90
37318;DHT22;23201;52.484;4.764;2024-01-15T00:55:26;17.60;99.90
37318;DHT22;23201;52.484;4.764;2024-01-15T00:57:52;17.60;99.90
37318;DHT22;23201;52.484;4.764;2024-01-15T01:00:18;17.50;99.90
37318;DHT22;23201;52.484;4.764;2024-01-15T01:02:43;17.60;99.90
37318;DHT22;23201;52.484;4.764;2024-01-15T01:05:09;17.60;99.90
37318;DHT22;23201;52.484;4.764;2024-01-15T01:07:34;17.60;99.90
37318;DHT22;23201;52.484;4.764;2024-01-15T01:10:00;17.60;99.90
37318;DHT22;23201;52.484;4.764;2024-01-15T01:12:26;17.50;99.90
37318;DHT22;23201;52.484;4.764;2024-01-15T01:14:51;17.50;99.90
37318;DHT22;23201;52.484;4.764;2024-01-15T01:17:17;17.50;99.90
37318;DHT22;23201;52.484;4.764;2024-01-15T01:19:42;17.50;99.90
37318;DHT22;23201;52.484;4.764;2024-01-15T01:22:08;17.50;99.90
37318;DHT22;23201;52.484;4.764;2024-01-15T01:24:34;17.50;99.90
37318;DHT22;23201;52.484;4.764;2024-01-15T01:26:59;17.50;99.90
37318;DHT22;23201;52.484;4.764;2024-01-15T01:29:25;17.50;99.90
37318;DHT22;23201;52.484;4.764;2024-01-15T01:31:51;17.50;99.90
37318;DHT22;23201;52.484;4.764;2024-01-15T01:34:17;17.50;99.90
37318;DHT22;23201;52.484;4.764;2024-01-15T01:36:43;17.50;99.90
37318;DHT22;23201;52.484;4.764;2024-01-15T01:39:09;17.50;99.90
37318;DHT22;23201;52.484;4.764;2024-01-15T01:41:35;17.50;99.90
37318;DHT22;23201;52.484;4.764;2024-01-15T01:44:00;17.50;99.90
37318;DHT22;23201;52.484;4.764;2024-01-15T01:46:27;17.50;99.90
37318;DHT22;23201;52.484;4.764;2024-01-15T01:48:54;17.50;99.90
37318;DHT22;23201;52.484;4.764;2024-01-15T01:51:22;17.50;99.90
37318;DHT22;23201;52.484;4.764;2024-01-15T01:53:49;17.50;99.90
37318;DHT22;23201;52.484;4.764;2024-01-15T01:56:15;17.50;99.90
37318;DHT22;23201;52.484;4.764;2024-01-15T01:58:40;17.50;99.90
37318;DHT22;23201;52.484;4.764;2024-01-15T02:01:06;17.50;99.90
37318;DHT22;23201;52.484;4.764;2024-01-15T02:03:32;17.50;99.90
37318;DHT22;23201;52.484;4.764;2024-01-15T02:05:59;17.50;99.90
37318;DHT22;23201;52.484;4.764;2024-01-15T02:08:26;17.50;99.90
37318;DHT22;23201;52.484;4.764;2024-01-15T02:10:52;17.50;99.90
37318;DHT22;23201;52.484;4.764;2024-01-15T02:13:18;17.50;99.90
37318;DHT22;23201;52.484;4.764;2024-01-15T02:15:44;17.50;99.90
37318;DHT22;23201;52.484;4.764;2024-01-15T02:18:09;17.50;99.90
37318;DHT22;23201;52.484;4.764;2024-01-15T02:20:35;17.50;99.90
37318;DHT22;23201;52.484;4.764;2024-01-15T02:23:13;17.50;99.90
37318;DHT22;23201;52.484;4.764;2024-01-15T02:25:43;17.50;99.90
37318;DHT22;23201;52.484;4.764;2024-01-15T02:28:11;17.50;99.90
37318;DHT22;23201;52.484;4.764;2024-01-15T02:30:37;17.50;99.90
37318;DHT22;23201;52.484;4.764;2024-01-15T02:33:07;17.50;99.90
37318;DHT22;23201;52.484;4.764;2024-01-15T02:35:33;17.50;99.90
37318;DHT22;23201;52.484;4.764;2024-01-15T02:37:59;17.50;99.90
37318;DHT22;23201;52.484;4.764;2024-01-15T02:40:25;17.50;99.90
37318;DHT22;23201;52.484;4.764;2024-01-15T02:42:50;17.50;99.90
37318;DHT22;23201;52.484;4.764;2024-01-15T02:45:17;17.40;99.90
37318;DHT22;23201;52.484;4.764;2024-01-15T02:47:42;17.40;99.90
37318;DHT22;23201;52.484;4.764;2024-01-15T02:50:08;17.50;99.90
37318;DHT22;23201;52.484;4.764;2024-01-15T02:52:34;17.50;99.90
37318;DHT22;23201;52.484;4.764;2024-01-15T02:54:59;17.50;99.90
37318;DHT22;23201;52.484;4.764;2024-01-15T02:57:25;17.40;99.90
37318;DHT22;23201;52.484;4.764;2024-01-15T02:59:50;17.40;99.90
37318;DHT22;23201;52.484;4.764;2024-01-15T03:02:16;17.40;99.90
37318;DHT22;23201;52.484;4.764;2024-01-15T03:04:45;17.40;99.90
37318;DHT22;23201;52.484;4.764;2024-01-15T03:07:10;17.40;99.90
37318;DHT22;23201;52.484;4.764;2024-01-15T03:09:36;17.40;99.90
37318;DHT22;23201;52.484;4.764;2024-01-15T03:12:01;17.40;99.90
37318;DHT22;23201;52.484;4.764;2024-01-15T03:14:27;17.40;99.90
37318;DHT22;23201;52.484;4.764;2024-01-15T03:16:53;17.40;99.90
37318;DHT22;23201;52.484;4.764;2024-01-15T03:19:19;17.40;99.90
37318;DHT22;23201;52.484;4.764;2024-01-15T03:21:44;17.40;99.90
37318;DHT22;23201;52.484;4.764;2024-01-15T03:24:10;17.40;99.90
37318;DHT22;23201;52.484;4.764;2024-01-15T03:26:36;17.40;99.90
37318;DHT22;23201;52.484;4.764;2024-01-15T03:29:01;17.40;99.90
37318;DHT22;23201;52.484;4.764;2024-01-15T03:31:27;17.40;99.90
37318;DHT22;23201;52.484;4.764;2024-01-15T03:33:52;17.40;99.90
37318;DHT22;23201;52.484;4.764;2024-01-15T03:36:18;17.40;99.90
37318;DHT22;23201;52.484;4.764;2024-01-15T03:38:43;17.40;99.90
37318;DHT22;23201;52.484;4.764;2024-01-15T03:41:09;17.40;99.90
37318;DHT22;23201;52.484;4.764;2024-01-15T03:43:35;17.40;99.90
37318;DHT22;23201;52.484;4.764;2024-01-15T03:46:00;17.40;99.90
37318;DHT22;23201;52.484;4.764;2024-01-15T03:48:27;17.40;99.90
37318;DHT22;23201;52.484;4.764;2024-01-15T03:50:53;17.40;99.90
37318;DHT22;23201;52.484;4.764;2024-01-15T03:53:19;17.40;99.90
37318;DHT22;23201;52.484;4.764;2024-01-15T03:55:44;17.40;99.90
37318;DHT22;23201;52.484;4.764;2024-01-15T03:58:10;17.30;99.90
37318;DHT22;23201;52.484;4.764;2024-01-15T04:00:35;17.40;99.90
37318;DHT22;23201;52.484;4.764;2024-01-15T04:03:01;17.40;99.90
37318;DHT22;23201;52.484;4.764;2024-01-15T04:05:26;17.40;99.90
37318;DHT22;23201;52.484;4.764;2024-01-15T04:07:52;17.30;99.90
37318;DHT22;23201;52.484;4.764;2024-01-15T04:10:17;17.40;99.90
37318;DHT22;23201;52.484;4.764;2024-01-15T04:12:43;17.40;99.90
37318;DHT22;23201;52.484;4.764;2024-01-15T04:15:09;17.30;99.90
37318;DHT22;23201;52.484;4.764;2024-01-15T04:17:34;17.40;99.90
37318;DHT22;23201;52.484;4.764;2024-01-15T04:20:00;17.30;99.90
37318;DHT22;23201;52.484;4.764;2024-01-15T04:22:26;17.30;99.90
37318;DHT22;23201;52.484;4.764;2024-01-15T04:24:52;17.30;99.90
37318;DHT22;23201;52.484;4.764;2024-01-15T04:27:17;17.30;99.90
37318;DHT22;23201;52.484;4.764;2024-01-15T04:29:43;17.30;99.90
37318;DHT22;23201;52.484;4.764;2024-01-15T04:32:10;17.20;99.90
37318;DHT22;23201;52.484;4.764;2024-01-15T04:34:35;17.30;99.90
37318;DHT22;23201;52.484;4.764;2024-01-15T04:37:01;17.20;99.90
37318;DHT22;23201;52.484;4.764;2024-01-15T04:39:27;17.30;99.90
37318;DHT22;23201;52.484;4.764;2024-01-15T04:41:52;17.30;99.90
37318;DHT22;23201;52.484;4.764;2024-01-15T04:44:18;17.30;99.90
37318;DHT22;23201;52.484;4.764;2024-01-15T04:46:44;17.20;99.90
37318;DHT22;23201;52.484;4.764;2024-01-15T04:49:10;17.20;99.90
37318;DHT22;23201;52.484;4.764;2024-01-15T04:51:36;17.30;99.90
37318;DHT22;23201;52.484;4.764;2024-01-15T04:54:01;17.30;99.90
37318;DHT22;23201;52.484;4.764;2024-01-15T04:56:27;17.30;99.90
37318;DHT22;23201;52.484;4.764;2024-01-15T04:58:53;17.30;99.90
37318;DHT22;23201;52.484;4.764;2024-01-15T05:01:18;17.20;99.90
37318;DHT22;23201;52.484;4.764;2024-01-15T05:03:44;17.20;99.90
37318;DHT22;23201;52.484;4.764;2024-01-15T05:06:09;17.20;99.90
37318;DHT22;23201;52.484;4.764;2024-01-15T05:08:35;17.20;99.90
37318;DHT22;23201;52.484;4.764;2024-01-15T05:11:00;17.20;99.90
37318;DHT22;23201;52.484;4.764;2024-01-15T05:13:26;17.20;99.90
37318;DHT22;23201;52.484;4.764;2024-01-15T05:15:52;17.20;99.90
37318;DHT22;23201;52.484;4.764;2024-01-15T05:18:17;17.20;99.90
37318;DHT22;23201;52.484;4.764;2024-01-15T05:20:43;17.30;99.90
37318;DHT22;23201;52.484;4.764;2024-01-15T05:23:09;17.40;99.90
37318;DHT22;23201;52.484;4.764;2024-01-15T05:25:34;17.50;99.90
37318;DHT22;23201;52.484;4.764;2024-01-15T05:28:01;17.50;99.90
37318;DHT22;23201;52.484;4.764;2024-01-15T05:30:26;17.70;99.90
37318;DHT22;23201;52.484;4.764;2024-01-15T05:32:52;17.80;99.90
37318;DHT22;23201;52.484;4.764;2024-01-15T05:35:17;17.80;99.90
37318;DHT22;23201;52.484;4.764;2024-01-15T05:37:44;17.90;99.90
37318;DHT22;23201;52.484;4.764;2024-01-15T05:40:11;18.00;99.90
37318;DHT22;23201;52.484;4.764;2024-01-15T05:42:37;18.00;99.90
37318;DHT22;23201;52.484;4.764;2024-01-15T05:45:03;18.10;99.90
37318;DHT22;23201;52.484;4.764;2024-01-15T05:47:30;18.20;99.90
37318;DHT22;23201;52.484;4.764;2024-01-15T05:49:57;18.20;99.90
37318;DHT22;23201;52.484;4.764;2024-01-15T05:52:22;18.30;99.90
37318;DHT22;23201;52.484;4.764;2024-01-15T05:54:49;18.40;99.90
37318;DHT22;23201;52.484;4.764;2024-01-15T05:57:15;18.40;99.90
37318;DHT22;23201;52.484;4.764;2024-01-15T05:59:40;18.40;99.90
37318;DHT22;23201;52.484;4.764;2024-01-15T06:02:06;18.50;99.90
37318;DHT22;23201;52.484;4.764;2024-01-15T06:04:31;18.50;99.90
37318;DHT22;23201;52.484;4.764;2024-01-15T06:06:57;18.60;99.90
37318;DHT22;23201;52.484;4.764;2024-01-15T06:09:22;18.60;99.90
37318;DHT22;23201;52.484;4.764;2024-01-15T06:11:48;18.60;99.90
37318;DHT22;23201;52.484;4.764;2024-01-15T06:14:14;18.60;99.90
37318;DHT22;23201;52.484;4.764;2024-01-15T06:16:39;18.60;99.90
37318;DHT22;23201;52.484;4.764;2024-01-15T06:19:05;18.50;99.90
37318;DHT22;23201;52.484;4.764;2024-01-15T06:21:30;18.50;99.90
37318;DHT22;23201;52.484;4.764;2024-01-15T06:23:56;18.50;99.90
37318;DHT22;23201;52.484;4.764;2024-01-15T06:26:22;18.40;99.90
37318;DHT22;23201;52.484;4.764;2024-01-15T06:28:48;18.40;99.90
37318;DHT22;23201;52.484;4.764;2024-01-15T06:31:13;18.30;99.90
37318;DHT22;23201;52.484;4.764;2024-01-15T06:33:39;18.20;99.90
37318;DHT22;23201;52.484;4.764;2024-01-15T06:36:06;18.20;99.90
37318;DHT22;23201;52.484;4.764;2024-01-15T06:38:31;18.10;99.90
37318;DHT22;23201;52.484;4.764;2024-01-15T06:40:57;18.10;99.90
37318;DHT22;23201;52.484;4.764;2024-01-15T06:43:22;18.10;99.90
37318;DHT22;23201;52.484;4.764;2024-01-15T06:45:48;18.20;99.90
37318;DHT22;23201;52.484;4.764;2024-01-15T06:48:14;18.20;99.90
37318;DHT22;23201;52.484;4.764;2024-01-15T06:50:42;18.30;99.90
37318;DHT22;23201;52.484;4.764;2024-01-15T06:53:07;18.40;99.90
37318;DHT22;23201;52.484;4.764;2024-01-15T06:55:33;18.40;99.90
37318;DHT22;23201;52.484;4.764;2024-01-15T06:57:58;18.50;99.90
37318;DHT22;23201;52.484;4.764;2024-01-15T07:00:24;18.60;99.90
37318;DHT22;23201;52.484;4.764;2024-01-15T07:02:49;18.70;99.90
37318;DHT22;23201;52.484;4.764;2024-01-15T07:05:15;18.80;99.90
37318;DHT22;23201;52.484;4.764;2024-01-15T07:07:40;18.80;99.90
37318;DHT22;23201;52.484;4.764;2024-01-15T07:10:06;18.90;99.90
37318;DHT22;23201;52.484;4.764;2024-01-15T07:12:32;19.00;99.90
37318;DHT22;23201;52.484;4.764;2024-01-15T07:14:58;19.10;99.90
37318;DHT22;23201;52.484;4.764;2024-01-15T07:17:23;19.10;99.90
37318;DHT22;23201;52.484;4.764;2024-01-15T07:19:49;19.10;99.90
37318;DHT22;23201;52.484;4.764;2024-01-15T07:22:15;19.10;99.90
37318;DHT22;23201;52.484;4.764;2024-01-15T07:24:43;19.10;99.90
37318;DHT22;23201;52.484;4.764;2024-01-15T07:27:08;19.10;99.90
37318;DHT22;23201;52.484;4.764;2024-01-15T07:29:34;19.10;99.90
37318;DHT22;23201;52.484;4.764;2024-01-15T07:32:03;19.10;99.90
37318;DHT22;23201;52.484;4.764;2024-01-15T07:34:29;19.00;99.90
37318;DHT22;23201;52.484;4.764;2024-01-15T07:36:54;19.10;99.90
37318;DHT22;23201;52.484;4.764;2024-01-15T07:39:20;19.10;99.90
37318;DHT22;23201;52.484;4.764;2024-01-15T07:41:45;19.10;99.90
37318;DHT22;23201;52.484;4.764;2024-01-15T07:44:11;19.10;99.90
37318;DHT22;23201;52.484;4.764;2024-01-15T07:46:36;19.10;99.90
37318;DHT22;23201;52.484;4.764;2024-01-15T07:49:02;19.10;99.90
37318;DHT22;23201;52.484;4.764;2024-01-15T07:51:28;19.00;99.90
37318;DHT22;23201;52.484;4.764;2024-01-15T07:53:54;19.00;99.90
37318;DHT22;23201;52.484;4.764;2024-01-15T07:56:23;19.00;99.90
37318;DHT22;23201;52.484;4.764;2024-01-15T07:58:49;18.90;99.90
37318;DHT22;23201;52.484;4.764;2024-01-15T08:01:15;18.90;99.90
37318;DHT22;23201;52.484;4.764;2024-01-15T08:03:40;18.90;99.90
37318;DHT22;23201;52.484;4.764;2024-01-15T08:06:06;19.00;99.90
37318;DHT22;23201;52.484;4.764;2024-01-15T08:08:31;19.10;99.90
37318;DHT22;23201;52.484;4.764;2024-01-15T08:10:57;19.20;99.90
37318;DHT22;23201;52.484;4.764;2024-01-15T08:13:22;19.30;99.90
37318;DHT22;23201;52.484;4.764;2024-01-15T08:15:48;19.40;99.90
37318;DHT22;23201;52.484;4.764;2024-01-15T08:18:14;19.50;99.90
37318;DHT22;23201;52.484;4.764;2024-01-15T08:20:39;19.60;99.90
37318;DHT22;23201;52.484;4.764;2024-01-15T08:23:05;19.70;99.90
37318;DHT22;23201;52.484;4.764;2024-01-15T08:25:30;19.80;99.90
37318;DHT22;23201;52.484;4.764;2024-01-15T08:27:57;19.90;99.90
37318;DHT22;23201;52.484;4.764;2024-01-15T08:30:23;19.90;99.90
37318;DHT22;23201;52.484;4.764;2024-01-15T08:32:56;19.90;99.90
37318;DHT22;23201;52.484;4.764;2024-01-15T08:35:24;20.00;99.90
37318;DHT22;23201;52.484;4.764;2024-01-15T08:37:50;19.90;99.90
37318;DHT22;23201;52.484;4.764;2024-01-15T08:40:16;20.00;99.90
37318;DHT22;23201;52.484;4.764;2024-01-15T08:42:42;19.90;99.90
37318;DHT22;23201;52.484;4.764;2024-01-15T08:45:09;20.00;99.90
37318;DHT22;23201;52.484;4.764;2024-01-15T08:47:34;20.00;99.90
37318;DHT22;23201;52.484;4.764;2024-01-15T08:50:00;20.00;99.90
37318;DHT22;23201;52.484;4.764;2024-01-15T08:52:26;19.90;99.90
37318;DHT22;23201;52.484;4.764;2024-01-15T08:54:51;20.00;99.90
37318;DHT22;23201;52.484;4.764;2024-01-15T08:57:17;20.00;99.90
37318;DHT22;23201;52.484;4.764;2024-01-15T08:59:42;19.90;99.90
37318;DHT22;23201;52.484;4.764;2024-01-15T09:02:08;19.90;99.90
37318;DHT22;23201;52.484;4.764;2024-01-15T09:04:34;19.90;99.90
37318;DHT22;23201;52.484;4.764;2024-01-15T09:07:00;19.90;99.90
37318;DHT22;23201;52.484;4.764;2024-01-15T09:09:25;19.90;99.90
37318;DHT22;23201;52.484;4.764;2024-01-15T09:11:51;19.90;99.90
37318;DHT22;23201;52.484;4.764;2024-01-15T09:14:17;19.90;99.90
37318;DHT22;23201;52.484;4.764;2024-01-15T09:16:43;19.80;99.90
37318;DHT22;23201;52.484;4.764;2024-01-15T09:19:08;19.80;99.90
37318;DHT22;23201;52.484;4.764;2024-01-15T09:21:34;19.80;99.90
37318;DHT22;23201;52.484;4.764;2024-01-15T09:23:59;19.70;99.90
37318;DHT22;23201;52.484;4.764;2024-01-15T09:26:25;19.80;99.90
37318;DHT22;23201;52.484;4.764;2024-01-15T09:28:52;19.90;99.90
37318;DHT22;23201;52.484;4.764;2024-01-15T09:31:17;19.90;99.90
37318;DHT22;23201;52.484;4.764;2024-01-15T09:33:43;20.00;99.90
37318;DHT22;23201;52.484;4.764;2024-01-15T09:36:09;20.00;99.90
37318;DHT22;23201;52.484;4.764;2024-01-15T09:38:35;20.10;99.90
37318;DHT22;23201;52.484;4.764;2024-01-15T09:41:00;20.20;99.90
37318;DHT22;23201;52.484;4.764;2024-01-15T09:43:26;20.20;99.90
37318;DHT22;23201;52.484;4.764;2024-01-15T09:45:51;20.20;99.90
37318;DHT22;23201;52.484;4.764;2024-01-15T09:48:17;20.30;99.90
37318;DHT22;23201;52.484;4.764;2024-01-15T09:50:43;20.30;99.90
37318;DHT22;23201;52.484;4.764;2024-01-15T09:53:09;20.30;99.90
37318;DHT22;23201;52.484;4.764;2024-01-15T09:55:36;20.30;99.90
37318;DHT22;23201;52.484;4.764;2024-01-15T09:58:03;20.30;99.90
37318;DHT22;23201;52.484;4.764;2024-01-15T10:00:29;20.30;99.90
37318;DHT22;23201;52.484;4.764;2024-01-15T10:02:56;20.30;99.90
37318;DHT22;23201;52.484;4.764;2024-01-15T10:05:22;20.30;99.90
37318;DHT22;23201;52.484;4.764;2024-01-15T10:07:48;20.30;99.90
37318;DHT22;23201;52.484;4.764;2024-01-15T10:10:17;20.30;99.90
37318;DHT22;23201;52.484;4.764;2024-01-15T10:12:42;20.30;99.90
37318;DHT22;23201;52.484;4.764;2024-01-15T10:15:12;20.30;99.90
37318;DHT22;23201;52.484;4.764;2024-01-15T10:17:38;20.30;99.90
37318;DHT22;23201;52.484;4.764;2024-01-15T10:20:11;20.40;99.90
37318;DHT22;23201;52.484;4.764;2024-01-15T10:22:43;20.40;99.90
37318;DHT22;23201;52.484;4.764;2024-01-15T10:25:13;20.30;99.90
37318;DHT22;23201;52.484;4.764;2024-01-15T10:27:40;20.30;99.90
37318;DHT22;23201;52.484;4.764;2024-01-15T10:30:07;20.30;99.90
37318;DHT22;23201;52.484;4.764;2024-01-15T10:32:33;20.20;99.90
37318;DHT22;23201;52.484;4.764;2024-01-15T10:34:58;20.20;99.90
37318;DHT22;23201;52.484;4.764;2024-01-15T10:37:24;20.20;99.90
37318;DHT22;23201;52.484;4.764;2024-01-15T10:39:51;20.20;99.90
37318;DHT22;23201;52.484;4.764;2024-01-15T10:42:17;20.20;99.90
37318;DHT22;23201;52.484;4.764;2024-01-15T10:44:44;20.10;99.90
37318;DHT22;23201;52.484;4.764;2024-01-15T10:47:12;20.10;99.90
37318;DHT22;23201;52.484;4.764;2024-01-15T10:49:37;20.00;99.90
37318;DHT22;23201;52.484;4.764;2024-01-15T10:52:03;20.00;99.90
37318;DHT22;23201;52.484;4.764;2024-01-15T10:54:29;20.00;99.90
37318;DHT22;23201;52.484;4.764;2024-01-15T10:56:56;20.00;99.90
37318;DHT22;23201;52.484;4.764;2024-01-15T10:59:22;20.00;99.90
37318;DHT22;23201;52.484;4.764;2024-01-15T11:01:51;20.00;99.90
37318;DHT22;23201;52.484;4.764;2024-01-15T11:04:21;20.10;99.90
37318;DHT22;23201;52.484;4.764;2024-01-15T11:06:52;20.10;99.90
37318;DHT22;23201;52.484;4.764;2024-01-15T11:09:18;20.20;99.90
37318;DHT22;23201;52.484;4.764;2024-01-15T11:11:46;20.30;99.90
37318;DHT22;23201;52.484;4.764;2024-01-15T11:17:01;20.40;99.90
37318;DHT22;23201;52.484;4.764;2024-01-15T11:19:48;20.50;99.90
37318;DHT22;23201;52.484;4.764;2024-01-15T11:24:57;20.50;99.90
37318;DHT22;23201;52.484;4.764;2024-01-15T11:27:50;20.50;99.90
37318;DHT22;23201;52.484;4.764;2024-01-15T11:30:17;20.50;99.90
37318;DHT22;23201;52.484;4.764;2024-01-15T11:32:42;20.50;99.90
37318;DHT22;23201;52.484;4.764;2024-01-15T11:35:09;20.50;99.90
